Etusivu
METAR-TAF:

METAR-TAF

Lentoasemat :

Magdeburg, Saksa

Leveyspiiri: 51-51-18N, Pituuspiiri: 11-25-08E, korkeus merenpinnasta: 180 m

Tämänhetkinen sää

Tämä raportti tehtiin 33 minuuttia sitten, kello 18.50 UTC
Tuuli 5 kn idästä/koillisesta
Lämpötila 8°C
Kosteus 81%
Ilmanpaine 1005 hPa
Näkyvyys: 1100 m

METAR: EDBC 031850Z AUTO 06005KT 9999 1100 R25/1400D // NCD 08/05 Q1005

Aika: 20:23 (19:23 UTC)


TAF: puuttuu

Säähavainnot ja -ennusteet yli 4000 lentoasemalta (METAR- ja TAF-raportit).

Käytössä olevat sääasemat on merkitty karttaan keltaisilla ja punaisilla pisteillä.

Aseta hiiri pisteen päälle nähdäksesi sääaseman nimen.

Klikkaa sitten nähdäksesi säähavainnot ja -ennusteet.

Kartan vaihtaminen: klikkaa mustalla rastilla varustettuja vihreitä pisteitä, niin voit zoomata sisään; viivalla varustettua vihreää pistettä, niin voit zoomata ulos tai vihreitä nuolia, niin pääset viereisille kartoille.


METAR-TAF: